Time;durP1;ratioP1;P1;durP2;ratioP2;P2;SDS_P1;SDS_P2;PMS_P1;PMS_P2;Temp;Humidity;BMP_temperature;BMP_pressure;BME280_temperature;BME280_humidity;BME280_pressure;Samples;Min_cycle;Max_cycle;Signal;HPM_P1;HPM_P2
2021/05/03 00:01:54;;;;;;;8.40;7.80;;;18.70;33.50;;;;;;5033531;28;20453;-74
2021/05/03 00:04:20;;;;;;;7.13;6.63;;;18.70;33.50;;;;;;5032574;28;20177;-74
2021/05/03 00:06:45;;;;;;;7.30;6.70;;;18.70;33.50;;;;;;5030910;28;20184;-74
2021/05/03 00:09:11;;;;;;;7.10;6.67;;;18.60;33.40;;;;;;5030898;28;20295;-75
2021/05/03 00:11:37;;;;;;;7.57;6.97;;;18.70;33.50;;;;;;5032024;28;20169;-74
2021/05/03 00:14:03;;;;;;;7.00;6.40;;;18.70;33.50;;;;;;5032216;28;20215;-74
2021/05/03 00:16:28;;;;;;;6.90;6.30;;;18.60;33.40;;;;;;5031948;28;20256;-74
2021/05/03 00:18:54;;;;;;;7.83;7.03;;;18.60;33.40;;;;;;5030653;28;20196;-74
2021/05/03 00:21:19;;;;;;;7.50;7.00;;;18.60;33.40;;;;;;5031962;28;20184;-74
2021/05/03 00:23:45;;;;;;;6.93;6.53;;;18.60;33.40;;;;;;5033497;28;20165;-74
2021/05/03 00:26:11;;;;;;;6.90;6.40;;;18.60;33.40;;;;;;5035769;28;20176;-74
2021/05/03 00:28:38;;;;;;;7.40;6.90;;;18.60;33.40;;;;;;5035885;28;20562;-74
2021/05/03 00:31:04;;;;;;;6.97;6.47;;;18.60;33.40;;;;;;5036028;28;20404;-74
2021/05/03 00:33:29;;;;;;;6.77;6.27;;;18.60;33.40;;;;;;5034471;28;20431;-74
2021/05/03 00:35:55;;;;;;;7.10;6.60;;;18.60;33.40;;;;;;5035417;28;20466;-74
2021/05/03 00:38:20;;;;;;;6.83;6.43;;;18.60;33.40;;;;;;5035561;28;20192;-74
2021/05/03 00:40:46;;;;;;;6.40;5.90;;;18.60;33.40;;;;;;5035530;28;20168;-74
2021/05/03 00:43:17;;;;;;;7.00;6.37;;;18.60;33.40;;;;;;5035607;28;20168;-74
2021/05/03 00:45:43;;;;;;;6.67;6.17;;;18.60;33.40;;;;;;5035330;28;20216;-74
2021/05/03 00:48:09;;;;;;;6.47;6.07;;;18.60;33.40;;;;;;5035448;28;20442;-74
2021/05/03 00:50:34;;;;;;;6.37;5.97;;;18.60;33.40;;;;;;5035329;28;20403;-75
2021/05/03 00:53:00;;;;;;;10.67;6.30;;;18.60;33.40;;;;;;5035277;28;20411;-73
2021/05/03 00:55:27;;;;;;;6.70;6.30;;;18.60;33.40;;;;;;5035074;28;20250;-74
2021/05/03 00:57:53;;;;;;;7.00;6.50;;;18.60;33.40;;;;;;5035307;28;20242;-75
2021/05/03 01:00:22;;;;;;;6.40;6.00;;;18.60;33.40;;;;;;5035228;28;20411;-74
2021/05/03 01:02:47;;;;;;;6.27;5.90;;;18.60;33.40;;;;;;5035249;28;20709;-74
2021/05/03 01:05:13;;;;;;;6.70;6.30;;;18.60;33.40;;;;;;5033551;28;20418;-74
2021/05/03 01:07:39;;;;;;;6.63;6.20;;;18.50;33.30;;;;;;5033783;28;20620;-76
2021/05/03 01:10:05;;;;;;;6.60;6.10;;;18.60;33.40;;;;;;5035044;28;20409;-75
2021/05/03 01:12:31;;;;;;;7.00;6.60;;;18.60;33.40;;;;;;5035136;28;20918;-73
2021/05/03 01:14:56;;;;;;;6.67;6.10;;;18.50;33.30;;;;;;5034690;28;20207;-74
2021/05/03 01:17:35;;;;;;;6.13;5.73;;;18.50;33.40;;;;;;5034752;28;20173;-74
2021/05/03 01:20:08;;;;;;;6.00;5.57;;;18.50;33.40;;;;;;5033790;28;20271;-74
2021/05/03 01:22:34;;;;;;;6.37;5.97;;;18.50;33.40;;;;;;5034923;28;20414;-75
2021/05/03 01:25:00;;;;;;;5.77;5.47;;;18.50;33.40;;;;;;5033251;28;20419;-74
2021/05/03 01:27:25;;;;;;;6.60;6.20;;;18.50;33.30;;;;;;5034697;28;20418;-75
2021/05/03 01:29:51;;;;;;;6.50;6.10;;;18.50;33.40;;;;;;5034723;28;20177;-74
2021/05/03 01:32:16;;;;;;;6.40;6.00;;;18.50;33.30;;;;;;5034595;28;20259;-71
2021/05/03 01:34:43;;;;;;;5.83;5.53;;;18.50;33.40;;;;;;5034127;28;20247;-74
2021/05/03 01:37:13;;;;;;;5.60;5.30;;;18.50;33.40;;;;;;5034209;28;20674;-74
2021/05/03 01:39:38;;;;;;;5.90;5.53;;;18.50;33.30;;;;;;5034558;28;20423;-74
2021/05/03 01:42:04;;;;;;;6.70;6.30;;;18.50;34.00;;;;;;5034428;28;20764;-74
2021/05/03 01:44:30;;;;;;;6.60;6.20;;;18.50;33.30;;;;;;5034548;28;20196;-74
2021/05/03 01:46:56;;;;;;;5.93;5.63;;;18.50;33.30;;;;;;5033972;28;20439;-74
2021/05/03 01:49:22;;;;;;;6.07;5.63;;;18.50;33.30;;;;;;5033083;28;20202;-74
2021/05/03 01:51:49;;;;;;;6.37;5.97;;;18.50;33.30;;;;;;5032958;28;20207;-74
2021/05/03 01:54:14;;;;;;;6.10;5.70;;;18.50;33.20;;;;;;5034153;28;20465;-74
2021/05/03 01:56:40;;;;;;;6.10;5.70;;;18.50;33.30;;;;;;5033939;28;20419;-74
2021/05/03 01:59:06;;;;;;;5.80;5.50;;;18.50;33.20;;;;;;5032902;28;20229;-74
2021/05/03 02:01:33;;;;;;;6.10;5.73;;;18.50;33.30;;;;;;5033951;28;20499;-73
2021/05/03 02:03:59;;;;;;;6.23;5.77;;;18.50;33.30;;;;;;5034085;28;20411;-75
2021/05/03 02:06:24;;;;;;;6.70;6.20;;;18.50;33.30;;;;;;5032540;28;20526;-73
2021/05/03 02:08:50;;;;;;;6.23;5.93;;;18.50;33.30;;;;;;5033860;28;20196;-74
2021/05/03 02:11:15;;;;;;;5.67;5.37;;;18.50;33.30;;;;;;5033908;28;20173;-74
2021/05/03 02:13:41;;;;;;;6.10;5.70;;;18.40;33.20;;;;;;5033728;28;20540;-75
2021/05/03 02:16:07;;;;;;;6.13;5.70;;;18.50;33.20;;;;;;5033521;28;20203;-73
2021/05/03 02:18:32;;;;;;;6.03;5.70;;;18.50;33.30;;;;;;5033786;28;20189;-74
2021/05/03 02:20:58;;;;;;;5.33;5.03;;;18.50;33.20;;;;;;5033761;28;20703;-74
2021/05/03 02:23:24;;;;;;;6.30;5.63;;;18.50;33.20;;;;;;5033736;28;20639;-74
2021/05/03 02:25:49;;;;;;;6.07;5.67;;;18.40;33.10;;;;;;5032235;28;20315;-74
2021/05/03 02:28:15;;;;;;;6.00;5.60;;;18.40;33.10;;;;;;5032357;28;20201;-74
2021/05/03 02:30:41;;;;;;;5.57;5.27;;;18.40;33.10;;;;;;5033487;28;20173;-74
2021/05/03 02:33:07;;;;;;;6.50;6.10;;;18.40;33.10;;;;;;5033533;28;20569;-74
2021/05/03 02:35:34;;;;;;;6.07;5.70;;;18.40;33.00;;;;;;5033103;28;20455;-74
2021/05/03 02:38:01;;;;;;;5.37;5.07;;;18.40;33.00;;;;;;5033294;28;20442;-74
2021/05/03 02:40:28;;;;;;;5.63;5.20;;;18.40;33.00;;;;;;5033341;28;20411;-74
2021/05/03 02:42:56;;;;;;;5.40;5.10;;;18.40;33.00;;;;;;5033413;28;20412;-74
2021/05/03 02:45:22;;;;;;;5.33;5.13;;;18.40;33.00;;;;;;5032927;28;20420;-74
2021/05/03 02:47:52;;;;;;;5.43;5.03;;;18.40;33.00;;;;;;5032226;28;20496;-75
2021/05/03 02:50:18;;;;;;;5.90;5.60;;;18.40;33.00;;;;;;5033336;28;20422;-74
2021/05/03 02:52:44;;;;;;;6.13;5.83;;;18.40;33.00;;;;;;5033150;28;20435;-74
2021/05/03 02:55:11;;;;;;;6.13;5.73;;;18.40;33.00;;;;;;5031516;28;20494;-74
2021/05/03 02:57:38;;;;;;;5.40;5.00;;;18.40;33.00;;;;;;5032983;28;20973;-74
2021/05/03 03:00:09;;;;;;;6.27;5.80;;;18.40;33.00;;;;;;5032894;28;20439;-74
2021/05/03 03:02:35;;;;;;;5.47;5.20;;;18.40;33.00;;;;;;5033016;28;20917;-75
2021/05/03 03:05:01;;;;;;;5.90;5.50;;;18.40;33.00;;;;;;5032766;28;20420;-74
2021/05/03 03:07:27;;;;;;;5.73;5.43;;;18.40;33.00;;;;;;5032705;28;20414;-74
2021/05/03 03:09:52;;;;;;;5.33;5.03;;;18.40;33.00;;;;;;5032924;28;20172;-73
2021/05/03 03:12:18;;;;;;;4.97;4.77;;;18.40;33.00;;;;;;5032748;28;20175;-74
2021/05/03 03:14:44;;;;;;;5.37;5.07;;;18.40;33.00;;;;;;5031275;28;20694;-74
2021/05/03 03:17:10;;;;;;;5.07;4.87;;;18.40;32.90;;;;;;5032467;28;20264;-75
2021/05/03 03:19:39;;;;;;;5.67;5.37;;;18.40;32.90;;;;;;5032662;28;20626;-75
2021/05/03 03:22:05;;;;;;;5.10;4.90;;;18.30;32.80;;;;;;5031249;28;20428;-74
2021/05/03 03:24:31;;;;;;;5.50;5.20;;;18.40;33.00;;;;;;5032578;28;20889;-74
2021/05/03 03:26:57;;;;;;;5.33;5.03;;;18.30;32.80;;;;;;5032140;28;20446;-74
2021/05/03 03:29:22;;;;;;;6.20;5.80;;;18.30;32.90;;;;;;5034775;28;20227;-74
2021/05/03 03:31:48;;;;;;;5.77;5.37;;;18.30;32.90;;;;;;5038417;28;20184;-74
2021/05/03 03:34:13;;;;;;;5.30;5.10;;;18.30;32.90;;;;;;5046438;28;20284;-75
2021/05/03 03:36:39;;;;;;;4.70;4.50;;;18.40;32.90;;;;;;5032018;28;20173;-74
2021/05/03 03:39:06;;;;;;;4.60;4.37;;;18.40;33.00;;;;;;5032287;28;20200;-75
2021/05/03 03:41:32;;;;;;;5.27;4.97;;;18.40;33.10;;;;;;5040873;28;20177;-74
2021/05/03 03:43:58;;;;;;;5.53;5.13;;;18.50;32.90;;;;;;5032698;28;20414;-74
2021/05/03 03:46:23;;;;;;;5.43;4.93;;;18.60;32.80;;;;;;5032105;28;20399;-74
2021/05/03 03:48:49;;;;;;;5.00;4.70;;;18.70;32.50;;;;;;5032227;28;20238;-74
2021/05/03 03:51:15;;;;;;;6.00;5.60;;;18.70;32.30;;;;;;5032211;28;20209;-74
2021/05/03 03:53:41;;;;;;;4.93;4.63;;;18.80;32.20;;;;;;5032415;28;20206;-74
2021/05/03 03:56:06;;;;;;;5.37;4.97;;;18.90;32.00;;;;;;5032167;28;20196;-75
2021/05/03 03:58:32;;;;;;;5.30;4.90;;;19.00;31.90;;;;;;5033419;28;20427;-74
2021/05/03 04:00:58;;;;;;;5.10;4.80;;;19.10;31.80;;;;;;5034482;28;20643;-74
2021/05/03 04:03:24;;;;;;;4.87;4.57;;;19.20;31.70;;;;;;5032759;28;20175;-74
2021/05/03 04:09:06;;;;;;;4.80;4.50;;;19.40;31.40;;;;;;5035807;28;20473;-73
2021/05/03 04:27:19;;;;;;;5.80;5.50;;;19.80;31.10;;;;;;5028555;28;20510;-74
2021/05/03 04:29:45;;;;;;;4.80;4.40;;;19.90;31.20;;;;;;5029631;28;20510;-73
2021/05/03 04:32:11;;;;;;;9.30;5.60;;;19.90;31.20;;;;;;5031591;28;20709;-73
2021/05/03 04:34:36;;;;;;;5.53;4.93;;;19.90;31.40;;;;;;5033272;28;20693;-73
2021/05/03 04:37:02;;;;;;;5.13;4.83;;;19.90;31.50;;;;;;5011641;28;20169;-72
2021/05/03 04:39:27;;;;;;;4.90;4.60;;;19.90;31.50;;;;;;5012295;28;20703;-71
2021/05/03 04:41:53;;;;;;;6.93;5.10;;;19.90;31.70;;;;;;5011402;28;20184;-70
2021/05/03 04:44:18;;;;;;;5.67;5.27;;;19.90;31.70;;;;;;5011791;28;20177;-72
2021/05/03 04:46:44;;;;;;;7.07;4.53;;;19.90;31.60;;;;;;5010364;28;20228;-70
2021/05/03 04:49:09;;;;;;;5.60;5.00;;;20.00;31.70;;;;;;5012646;28;20705;-76
2021/05/03 04:51:35;;;;;;;5.23;4.83;;;20.00;31.70;;;;;;5031448;28;20670;-72
2021/05/03 04:54:00;;;;;;;4.77;4.37;;;20.00;31.70;;;;;;5031302;28;20181;-72
2021/05/03 04:56:26;;;;;;;7.03;5.10;;;20.00;31.70;;;;;;5030742;28;20661;-71
2021/05/03 04:58:51;;;;;;;9.00;5.83;;;20.00;31.80;;;;;;5031262;28;20220;-72
2021/05/03 05:01:17;;;;;;;5.10;4.60;;;20.00;31.90;;;;;;5031599;28;20266;-71
2021/05/03 05:03:42;;;;;;;5.33;4.93;;;20.00;32.10;;;;;;5031130;28;20173;-71
2021/05/03 05:06:09;;;;;;;5.60;5.00;;;20.00;32.10;;;;;;5031227;28;20169;-71
2021/05/03 05:08:34;;;;;;;6.13;5.63;;;19.90;32.20;;;;;;5031432;28;20216;-71
2021/05/03 05:11:00;;;;;;;5.80;5.40;;;20.00;32.50;;;;;;5031884;28;21002;-70
2021/05/03 05:13:33;;;;;;;5.07;4.67;;;19.90;32.50;;;;;;5035042;28;20595;-73
2021/05/03 05:15:58;;;;;;;6.50;5.17;;;19.90;32.70;;;;;;5033445;28;20219;-70
2021/05/03 05:18:25;;;;;;;5.20;4.90;;;19.90;32.80;;;;;;5034955;28;20921;-72
2021/05/03 05:20:50;;;;;;;8.83;5.40;;;19.80;32.80;;;;;;5034815;28;20227;-70
2021/05/03 05:23:16;;;;;;;5.10;4.50;;;19.80;32.90;;;;;;5034735;28;20412;-70
2021/05/03 05:25:42;;;;;;;5.70;5.27;;;19.80;32.90;;;;;;5034400;28;20188;-73
2021/05/03 05:28:07;;;;;;;6.00;5.50;;;19.80;33.00;;;;;;5034607;28;20200;-70
2021/05/03 05:30:33;;;;;;;6.00;5.40;;;19.80;33.20;;;;;;5034637;28;20631;-71
2021/05/03 05:32:58;;;;;;;5.57;5.03;;;19.80;33.30;;;;;;5034601;28;20173;-71
2021/05/03 05:35:24;;;;;;;5.90;5.40;;;19.80;33.40;;;;;;5034282;28;20279;-72
2021/05/03 05:37:49;;;;;;;5.57;5.00;;;19.80;33.50;;;;;;5034575;28;20698;-71
2021/05/03 05:40:15;;;;;;;5.77;4.60;;;19.80;33.50;;;;;;5034596;28;20188;-71
2021/05/03 05:42:40;;;;;;;6.80;5.70;;;19.80;33.50;;;;;;5034393;28;20172;-71
2021/05/03 05:45:07;;;;;;;6.13;5.57;;;19.80;33.50;;;;;;5032960;28;20216;-74
2021/05/03 05:47:32;;;;;;;5.63;5.03;;;19.80;33.40;;;;;;5034308;28;20198;-72
2021/05/03 05:49:58;;;;;;;6.23;5.30;;;19.80;33.60;;;;;;5034437;28;20420;-70
2021/05/03 05:52:24;;;;;;;6.00;5.60;;;19.80;33.50;;;;;;5034207;28;20181;-71
2021/05/03 05:54:49;;;;;;;6.63;5.77;;;19.70;33.20;;;;;;5034196;28;20196;-73
2021/05/03 05:57:15;;;;;;;7.60;6.60;;;19.70;32.80;;;;;;5033976;28;20173;-73
2021/05/03 05:59:40;;;;;;;6.73;6.23;;;19.60;32.60;;;;;;5034246;28;20689;-72
2021/05/03 06:02:06;;;;;;;10.17;7.10;;;19.60;31.70;;;;;;5034086;28;20637;-71
2021/05/03 06:04:32;;;;;;;6.43;6.00;;;19.50;31.30;;;;;;5034200;28;20259;-71
2021/05/03 06:06:58;;;;;;;6.73;6.10;;;19.50;30.70;;;;;;5033901;28;20200;-70
2021/05/03 06:09:24;;;;;;;9.80;6.23;;;19.50;31.20;;;;;;5032646;28;20483;-71
2021/05/03 06:11:49;;;;;;;7.07;6.13;;;19.50;31.40;;;;;;5033696;28;20185;-72
2021/05/03 06:14:15;;;;;;;7.67;6.20;;;19.50;31.20;;;;;;5033807;28;20287;-73
2021/05/03 06:16:40;;;;;;;7.30;6.70;;;19.50;31.00;;;;;;5033697;28;20173;-71
2021/05/03 06:19:06;;;;;;;8.10;6.80;;;19.50;31.10;;;;;;5033775;28;20232;-72
2021/05/03 06:21:32;;;;;;;6.30;5.80;;;19.50;30.80;;;;;;5033881;28;20199;-72
2021/05/03 06:23:57;;;;;;;6.23;5.63;;;19.60;31.10;;;;;;5033973;28;20176;-71
2021/05/03 06:26:23;;;;;;;7.10;6.30;;;19.60;31.00;;;;;;5033721;28;20177;-71
2021/05/03 06:28:48;;;;;;;6.23;5.73;;;19.60;30.90;;;;;;5033710;28;20200;-72
2021/05/03 06:31:14;;;;;;;7.43;6.00;;;19.60;30.90;;;;;;5033647;28;20168;-71
2021/05/03 06:33:39;;;;;;;6.03;5.47;;;19.60;30.90;;;;;;5034538;28;20290;-71
2021/05/03 06:36:05;;;;;;;6.10;5.63;;;19.60;31.00;;;;;;5035339;28;20266;-71
2021/05/03 06:38:31;;;;;;;9.10;6.27;;;19.50;30.80;;;;;;5034113;28;20203;-73
2021/05/03 06:40:57;;;;;;;7.00;5.87;;;19.60;31.00;;;;;;5033654;28;20932;-70
2021/05/03 06:43:22;;;;;;;10.47;7.00;;;19.60;31.00;;;;;;5046382;28;20183;-72
2021/05/03 06:45:48;;;;;;;6.10;5.57;;;19.60;31.10;;;;;;5035285;28;20180;-69
2021/05/03 06:48:14;;;;;;;6.23;5.83;;;19.60;31.10;;;;;;5030067;28;20216;-68
2021/05/03 06:50:45;;;;;;;6.00;5.50;;;19.60;31.20;;;;;;5032916;28;20195;-68
2021/05/03 06:53:12;;;;;;;7.90;5.97;;;19.60;31.10;;;;;;5032980;28;20184;-70
2021/05/03 06:55:38;;;;;;;6.83;6.17;;;19.60;31.00;;;;;;5033009;28;20459;-70
2021/05/03 06:58:03;;;;;;;7.57;6.23;;;19.60;31.00;;;;;;5033286;28;20427;-70
2021/05/03 07:00:29;;;;;;;9.67;6.23;;;19.60;31.10;;;;;;5038464;28;20184;-69
2021/05/03 07:02:54;;;;;;;6.13;5.63;;;19.70;31.40;;;;;;5033859;28;20177;-69
2021/05/03 07:05:20;;;;;;;6.17;5.57;;;19.70;31.40;;;;;;5032696;28;20180;-69
2021/05/03 07:07:46;;;;;;;6.23;5.73;;;19.70;31.50;;;;;;5032732;28;20196;-70
2021/05/03 07:10:13;;;;;;;7.90;5.87;;;19.70;31.60;;;;;;5032863;28;20184;-69
2021/05/03 07:12:43;;;;;;;7.30;6.60;;;19.80;31.50;;;;;;5032810;28;20545;-69
2021/05/03 07:15:11;;;;;;;6.30;5.67;;;19.80;31.80;;;;;;5032293;28;20466;-68
2021/05/03 07:17:37;;;;;;;6.60;6.00;;;19.80;31.70;;;;;;5032432;28;20472;-68
2021/05/03 07:20:05;;;;;;;8.00;7.30;;;19.80;31.90;;;;;;5032687;28;20399;-69
2021/05/03 07:22:31;;;;;;;6.33;5.67;;;19.80;32.00;;;;;;5032352;28;20173;-68
2021/05/03 07:24:56;;;;;;;6.30;5.80;;;19.80;31.80;;;;;;5032650;28;20445;-69
2021/05/03 07:27:22;;;;;;;6.50;5.90;;;19.80;31.70;;;;;;5032199;28;20173;-69
2021/05/03 07:29:48;;;;;;;6.23;5.67;;;19.80;31.60;;;;;;5032633;28;20196;-71
2021/05/03 07:32:13;;;;;;;6.73;6.00;;;19.80;31.80;;;;;;5037924;28;20179;-69
2021/05/03 07:34:39;;;;;;;8.87;6.00;;;19.80;31.70;;;;;;5031778;28;20802;-69
2021/05/03 07:37:06;;;;;;;6.57;6.07;;;19.80;31.50;;;;;;5032133;28;20639;-70
2021/05/03 07:39:33;;;;;;;6.83;6.23;;;19.80;31.30;;;;;;5032478;28;20856;-69
2021/05/03 07:41:59;;;;;;;6.43;5.83;;;19.80;31.40;;;;;;5031283;28;20426;-69
2021/05/03 07:44:28;;;;;;;7.80;6.50;;;19.80;31.50;;;;;;5032394;28;20801;-70
2021/05/03 07:46:54;;;;;;;7.67;6.27;;;19.80;31.30;;;;;;5032024;28;20451;-68
2021/05/03 07:49:19;;;;;;;6.40;6.10;;;19.80;31.40;;;;;;5032202;28;20961;-70
2021/05/03 07:51:45;;;;;;;7.07;5.50;;;19.80;31.30;;;;;;5032057;28;20223;-70
2021/05/03 07:54:11;;;;;;;8.87;6.47;;;19.80;31.50;;;;;;5032063;28;20534;-70
2021/05/03 07:56:36;;;;;;;9.50;6.00;;;19.80;31.50;;;;;;5032196;28;20161;-69
2021/05/03 07:59:03;;;;;;;6.20;5.60;;;19.80;31.70;;;;;;5032151;28;20435;-69
2021/05/03 08:01:28;;;;;;;5.80;5.30;;;19.80;31.80;;;;;;5032342;28;20211;-70
2021/05/03 08:03:54;;;;;;;6.57;6.10;;;19.70;31.90;;;;;;5033740;28;20403;-70
2021/05/03 08:06:19;;;;;;;6.57;6.07;;;19.70;31.90;;;;;;5034158;28;20177;-70
2021/05/03 08:08:46;;;;;;;6.17;5.60;;;19.80;32.00;;;;;;5033835;28;20193;-70
2021/05/03 08:11:13;;;;;;;7.70;6.23;;;19.80;31.90;;;;;;5031361;28;20187;-69
2021/05/03 08:13:41;;;;;;;5.77;5.40;;;19.70;32.10;;;;;;5032049;28;20445;-70
2021/05/03 08:16:10;;;;;;;6.73;6.20;;;19.80;32.10;;;;;;5030470;28;21051;-67
2021/05/03 08:18:35;;;;;;;5.90;5.47;;;19.70;32.20;;;;;;5031804;28;20530;-69
2021/05/03 08:21:01;;;;;;;6.43;5.93;;;19.70;32.20;;;;;;5031810;28;20917;-68
2021/05/03 08:23:27;;;;;;;5.90;5.60;;;19.70;32.40;;;;;;5031881;28;20539;-69
2021/05/03 08:25:55;;;;;;;5.77;5.33;;;19.70;32.30;;;;;;5031199;28;20188;-68
2021/05/03 08:28:22;;;;;;;6.27;5.87;;;19.70;32.50;;;;;;5033106;28;20238;-68
2021/05/03 08:30:49;;;;;;;5.40;5.10;;;19.70;32.70;;;;;;5043165;28;20928;-68
2021/05/03 08:33:15;;;;;;;5.83;5.30;;;19.70;32.60;;;;;;5031576;28;20415;-70
2021/05/03 08:35:42;;;;;;;6.33;5.83;;;19.70;32.40;;;;;;5031409;28;20455;-69
2021/05/03 08:38:07;;;;;;;6.10;5.70;;;19.70;32.70;;;;;;5035385;28;20431;-70
2021/05/03 08:40:33;;;;;;;6.07;5.60;;;19.70;32.70;;;;;;5031567;28;20506;-70
2021/05/03 08:43:02;;;;;;;6.00;5.60;;;19.80;32.80;;;;;;5031733;28;20192;-69
2021/05/03 08:45:29;;;;;;;6.20;5.70;;;19.80;33.50;;;;;;5032314;28;20431;-69
2021/05/03 08:50:56;;;;;;;6.27;5.77;;;19.90;32.80;;;;;;5035750;28;20510;-69
2021/05/03 08:53:23;;;;;;;6.13;5.63;;;19.90;32.60;;;;;;5035030;28;20423;-70
2021/05/03 08:55:48;;;;;;;6.50;5.90;;;19.90;32.70;;;;;;5035043;28;20451;-69
2021/05/03 08:58:14;;;;;;;7.00;5.57;;;19.90;32.70;;;;;;5035056;28;20424;-69
2021/05/03 09:00:40;;;;;;;6.37;5.97;;;19.90;32.80;;;;;;5035173;28;20165;-71
2021/05/03 09:03:09;;;;;;;5.60;5.20;;;19.90;32.80;;;;;;5042032;28;20186;-69
2021/05/03 09:05:35;;;;;;;6.00;5.53;;;19.90;32.80;;;;;;5034668;28;20716;-69
2021/05/03 09:08:02;;;;;;;5.73;5.33;;;19.90;32.60;;;;;;5038733;28;20435;-69
2021/05/03 09:10:30;;;;;;;5.97;5.60;;;19.90;32.60;;;;;;5035061;28;20178;-69
2021/05/03 09:13:07;;;;;;;6.67;6.17;;;19.90;32.50;;;;;;5034720;28;20448;-70
2021/05/03 09:15:32;;;;;;;5.40;5.10;;;19.90;32.50;;;;;;5034649;28;20465;-70
2021/05/03 09:17:59;;;;;;;6.50;6.00;;;19.90;32.60;;;;;;5034836;28;20490;-69
2021/05/03 09:20:26;;;;;;;5.53;5.23;;;19.90;32.60;;;;;;5034971;28;20215;-69
2021/05/03 09:22:55;;;;;;;6.00;5.40;;;19.90;32.60;;;;;;5034886;28;20781;-71
2021/05/03 09:25:36;;;;;;;5.43;5.03;;;19.90;32.70;;;;;;5034602;28;20407;-69
2021/05/03 09:28:06;;;;;;;5.90;5.50;;;19.90;32.80;;;;;;5034763;28;20573;-70
2021/05/03 09:30:35;;;;;;;5.30;5.00;;;19.80;32.80;;;;;;5034714;28;20415;-69
2021/05/03 09:33:23;;;;;;;5.50;5.20;;;19.90;32.90;;;;;;5037142;28;20419;-68
2021/05/03 09:35:52;;;;;;;5.77;5.37;;;19.80;32.80;;;;;;5034008;28;20455;-69
2021/05/03 09:38:32;;;;;;;4.67;4.37;;;19.80;32.80;;;;;;5034381;28;20981;-70
2021/05/03 09:41:16;;;;;;;5.90;5.50;;;19.80;32.80;;;;;;5034566;28;20411;-71
2021/05/03 09:43:44;;;;;;;5.50;5.20;;;19.80;32.80;;;;;;5034513;28;20457;-69
2021/05/03 09:46:36;;;;;;;5.60;5.00;;;19.80;32.80;;;;;;5034184;28;20418;-69
2021/05/03 09:49:22;;;;;;;5.50;5.10;;;19.80;32.90;;;;;;5034337;28;20511;-70
2021/05/03 09:52:01;;;;;;;5.07;4.73;;;19.80;32.80;;;;;;5014769;28;20507;-69
2021/05/03 09:54:30;;;;;;;5.30;4.80;;;19.80;32.90;;;;;;5014434;28;20810;-71
2021/05/03 09:57:05;;;;;;;5.10;4.80;;;19.80;33.00;;;;;;5012500;28;20419;-69
2021/05/03 09:59:41;;;;;;;5.10;4.70;;;19.80;33.00;;;;;;5014544;28;20942;-73
2021/05/03 10:02:34;;;;;;;5.10;4.80;;;19.80;33.00;;;;;;5010344;28;20400;-73
2021/05/03 10:05:04;;;;;;;5.20;4.80;;;19.80;33.20;;;;;;5013990;28;20419;-74
2021/05/03 10:07:33;;;;;;;5.50;5.20;;;19.70;33.20;;;;;;5014083;28;20907;-70
2021/05/03 10:10:10;;;;;;;5.87;5.27;;;19.60;33.40;;;;;;5020954;28;20428;-69
2021/05/03 10:12:36;;;;;;;4.83;4.43;;;19.70;33.30;;;;;;5014017;28;20445;-70
2021/05/03 10:15:08;;;;;;;4.80;4.57;;;19.70;33.10;;;;;;5012323;28;20504;-70
2021/05/03 10:17:37;;;;;;;5.50;5.10;;;19.80;33.10;;;;;;5013489;28;20316;-72
2021/05/03 10:20:06;;;;;;;7.70;5.30;;;19.80;32.90;;;;;;5014081;28;20409;-71
2021/05/03 10:22:33;;;;;;;5.07;4.77;;;19.90;32.90;;;;;;5013893;28;20428;-72
2021/05/03 10:25:05;;;;;;;5.20;4.70;;;19.90;32.70;;;;;;5013552;28;20416;-70
2021/05/03 10:27:32;;;;;;;5.50;5.13;;;20.00;32.60;;;;;;5013763;28;20933;-71
2021/05/03 10:30:16;;;;;;;6.40;5.77;;;20.00;32.70;;;;;;5013411;28;20413;-71
2021/05/03 10:32:44;;;;;;;5.27;4.97;;;20.00;32.50;;;;;;5013396;28;20420;-70
2021/05/03 10:35:33;;;;;;;6.07;5.23;;;20.00;32.50;;;;;;5013395;28;20818;-70
2021/05/03 10:38:00;;;;;;;5.50;5.10;;;20.00;32.50;;;;;;5015719;28;20798;-71
2021/05/03 10:40:26;;;;;;;5.80;5.50;;;20.10;32.50;;;;;;5011726;28;20463;-70
2021/05/03 10:43:01;;;;;;;6.40;5.83;;;20.10;32.40;;;;;;5013081;28;21151;-70
2021/05/03 10:49:02;;;;;;;5.00;4.70;;;20.10;32.50;;;;;;5013720;28;20423;-70
2021/05/03 10:51:40;;;;;;;5.47;5.17;;;20.10;32.50;;;;;;5012109;28;21060;-70
2021/05/03 10:56:58;;;;;;;6.33;5.63;;;20.10;32.60;;;;;;5012858;28;20401;-70
2021/05/03 10:59:24;;;;;;;5.53;5.23;;;20.10;32.70;;;;;;5013181;28;20845;-70
2021/05/03 11:01:53;;;;;;;5.57;5.00;;;20.10;32.60;;;;;;5013298;28;20420;-69
2021/05/03 11:04:28;;;;;;;7.10;6.47;;;20.10;32.60;;;;;;5013305;28;20415;-71
2021/05/03 11:06:57;;;;;;;6.03;5.53;;;20.10;32.70;;;;;;5012998;28;20508;-70
2021/05/03 11:09:33;;;;;;;6.53;5.47;;;20.10;32.60;;;;;;5011789;28;20428;-70
2021/05/03 11:12:01;;;;;;;6.00;5.60;;;20.10;32.50;;;;;;5013000;28;20423;-70
2021/05/03 11:14:30;;;;;;;6.17;5.67;;;20.10;32.60;;;;;;5012816;28;20487;-70
2021/05/03 11:17:05;;;;;;;5.90;5.40;;;20.10;32.50;;;;;;5010928;28;20554;-70
2021/05/03 11:19:37;;;;;;;5.63;5.30;;;20.10;32.50;;;;;;5011946;28;20432;-69
2021/05/03 11:22:06;;;;;;;5.70;5.30;;;20.10;32.40;;;;;;5012609;28;20420;-69
2021/05/03 11:24:35;;;;;;;6.60;5.93;;;20.10;32.50;;;;;;5012824;28;20420;-71
2021/05/03 11:29:43;;;;;;;5.97;5.53;;;20.10;32.50;;;;;;5012878;28;20431;-70
2021/05/03 11:32:09;;;;;;;5.67;5.27;;;20.10;32.50;;;;;;5012996;28;20427;-70
2021/05/03 11:35:10;;;;;;;5.37;5.10;;;20.10;32.60;;;;;;5012490;28;20981;-70
2021/05/03 11:37:53;;;;;;;5.80;5.43;;;20.10;32.60;;;;;;5012599;28;20400;-71
2021/05/03 11:43:21;;;;;;;5.33;5.03;;;20.00;32.50;;;;;;5002982;28;20460;-70
2021/05/03 11:45:45;;;;;;;5.50;5.20;;;20.10;32.70;;;;;;5002296;28;20420;-70
2021/05/03 11:48:11;;;;;;;5.40;5.10;;;20.00;32.60;;;;;;4999780;28;21025;-70
2021/05/03 11:50:37;;;;;;;5.90;5.60;;;20.00;32.60;;;;;;5000328;28;20178;-71
2021/05/03 11:53:02;;;;;;;5.83;5.47;;;20.00;32.70;;;;;;5000928;28;20185;-71
2021/05/03 11:55:28;;;;;;;5.47;5.20;;;20.10;32.60;;;;;;5001076;28;20209;-70
2021/05/03 11:57:54;;;;;;;5.10;4.83;;;20.10;32.80;;;;;;5000309;28;20205;-71
2021/05/03 12:00:22;;;;;;;5.60;5.30;;;20.10;32.70;;;;;;5001316;28;20173;-71
2021/05/03 12:03:00;;;;;;;5.73;5.23;;;20.10;32.80;;;;;;5005179;28;20958;-70
2021/05/03 12:05:26;;;;;;;6.00;5.50;;;20.20;32.90;;;;;;5000533;28;20455;-71
2021/05/03 12:07:51;;;;;;;5.07;4.43;;;20.20;32.80;;;;;;5003204;28;20955;-72
2021/05/03 12:10:20;;;;;;;5.33;5.03;;;20.20;32.80;;;;;;5004354;28;20181;-72
2021/05/03 12:12:56;;;;;;;5.43;5.03;;;20.20;32.80;;;;;;5005486;28;20555;-71
2021/05/03 12:15:27;;;;;;;5.03;4.73;;;20.20;32.70;;;;;;5004099;28;21035;-70
2021/05/03 12:18:00;;;;;;;6.00;4.97;;;20.20;32.70;;;;;;5003945;28;20470;-69
2021/05/03 12:20:28;;;;;;;5.70;5.30;;;20.20;32.70;;;;;;5002278;28;20441;-71
2021/05/03 12:22:59;;;;;;;5.40;5.03;;;20.20;32.90;;;;;;5004697;28;20420;-70
2021/05/03 12:25:31;;;;;;;5.10;4.70;;;20.20;33.00;;;;;;5006952;28;20561;-71
2021/05/03 12:27:57;;;;;;;5.00;4.70;;;20.30;33.10;;;;;;5005074;28;20425;-71
2021/05/03 12:30:26;;;;;;;5.90;5.50;;;20.30;33.00;;;;;;5004966;28;20511;-71
2021/05/03 12:32:52;;;;;;;4.87;4.63;;;20.20;32.90;;;;;;5004470;28;20185;-72
2021/05/03 12:35:21;;;;;;;6.60;4.70;;;20.20;32.90;;;;;;5006878;28;20465;-70
2021/05/03 12:37:47;;;;;;;4.80;4.40;;;20.20;32.80;;;;;;5003147;28;20573;-70
2021/05/03 12:40:13;;;;;;;5.67;5.27;;;20.20;32.70;;;;;;5012936;28;20427;-71
2021/05/03 12:42:51;;;;;;;5.30;4.80;;;20.20;33.00;;;;;;5000747;28;20186;-69
2021/05/03 12:53:56;;;;;;;5.20;4.90;;;20.20;32.70;;;;;;5005024;28;20445;-69
2021/05/03 12:56:46;;;;;;;4.53;4.33;;;20.20;32.80;;;;;;5004872;28;20523;-71
2021/05/03 13:04:11;;;;;;;7.80;4.73;;;20.20;32.70;;;;;;5006110;28;20265;-70
2021/05/03 13:07:08;;;;;;;5.03;4.73;;;20.20;32.80;;;;;;5003406;28;20488;-71
2021/05/03 13:09:47;;;;;;;5.00;4.70;;;20.20;32.90;;;;;;5005994;28;20472;-70
2021/05/03 13:29:10;;;;;;;5.17;4.70;;;20.10;33.10;;;;;;5012941;28;20789;-70
2021/05/03 13:31:37;;;;;;;5.93;5.20;;;20.10;33.10;;;;;;5004063;28;21066;-70
2021/05/03 13:34:08;;;;;;;5.83;5.17;;;20.10;33.00;;;;;;5003710;28;20960;-70
2021/05/03 13:36:35;;;;;;;7.27;5.40;;;20.20;33.10;;;;;;5002447;28;20413;-72
2021/05/03 13:39:01;;;;;;;6.20;5.00;;;20.20;33.10;;;;;;5005051;28;20428;-71
2021/05/03 13:41:27;;;;;;;8.17;5.90;;;20.20;33.10;;;;;;4997159;28;20445;-71
2021/05/03 13:43:53;;;;;;;6.10;5.50;;;20.20;33.10;;;;;;4997641;28;20444;-72
2021/05/03 13:46:19;;;;;;;6.37;5.77;;;20.20;33.10;;;;;;4995024;28;20826;-71
2021/05/03 13:48:45;;;;;;;10.70;6.20;;;20.30;33.20;;;;;;4995165;28;20244;-71
2021/05/03 13:51:11;;;;;;;6.53;5.90;;;20.30;33.30;;;;;;5010682;28;20188;-71
2021/05/03 13:53:38;;;;;;;10.27;6.60;;;20.30;33.10;;;;;;5014616;28;20427;-70